Chaleur - Miscou: Past 24 Hour Conditions

 

Port aux Basques

09:30 PM NDT 30 October 2014
This table is a summary of hourly weather conditions for the past 24 hours.
Date / Time
(NDT)
Wind(knots) Conditions Visibility(km) Pressure(kPa) Air tempC) Relative humidity(%) Dew pointC)
30 October 2014
21:30 WNW 16 Partly Cloudy 15 100.9 8 80 4
20:30 W 18 Clear 15 100.9 8 78 4
19:30 WNW 15 gust 20 Mainly Clear 15 100.8 8 83 5
18:30 WNW 16 Mainly Clear 15 100.7 8 85 6
17:30 WNW 15 gust 20 Sunny 15 100.7 9 85 7
16:30 WNW 13 Sunny 15 100.6 9 86 7
15:30 W 18 gust 24 Mainly Sunny 15 100.6 10 87 8
14:30 W 12 Sunny 15 100.6 11 94 10
13:30 W 14 Cloudy 15 100.6 10 95 9
12:30 W 14 gust 19 Mostly Cloudy 15 100.6 10 97 10
11:30 W 11 Light Rain 8 100.6 10 99 10
10:30 W 12 Light Rain 6 100.6 10 100 10
9:30 W 15 Cloudy 0.3 100.4 11 100 11
8:30 WSW 19 gust 30 Light Rain 6 100.4 12 99 12
7:30 SSW 14 gust 20 Mainly Clear 6 100.3 13 100 13
6:30 SSW 15 Rain 3 100.4 12 100 12
5:30 S 13 Partly Cloudy 2 100.4 12 100 12
4:30 SSW 13 Cloudy 0.2 100.5 12 100 12
3:30 SSW 15 Cloudy 0.2 100.5 12 100 12
2:30 E 2 Cloudy 0.2 100.6 12 100 12
1:30 SSE 10 Cloudy 0.3 100.7 11 100 11
0:30 E 10 gust 15 Cloudy 2 100.9 10 100 10
29 October 2014
23:30 E 12 gust 18 Cloudy 0.6 101.0 10 99 9
22:30 E 13 Drizzle 2 101.2 10 98 9
21:30 ESE 12 Cloudy 15 101.3 10 94 9
 
Map of Atlantic - Newfoundland marine weather areas Southwestern Grand Banks - 44138 Banquereau - 44139 Tail of the Bank - 44140 Nickerson Bank - 44251 Northeast Burgeo Bank - 44255 Blanc-Sablon Airport Cap Whittle Chevery Natashquan Airport Heath Point Miscou Island Grand Étang Ingonish Beach North Mountain St.Paul Island J.A. Douglas McCurdy Sydney Airport Charlottetown Airport East Point North Cape Argentia Bonavista Burgeo Cape Race Corner Brook Daniel's Harbour Englee Ferolle Point La Scie Port aux Basques Rocky Harbour Sagona Island St. Anthony Airport St. John's Int'l Airport St. Lawrence Stephenville Airport Twillingate Winterland Wreckhouse Cartwright Airport Mary's Harbour Grates Cove Pool's Island Marticot Island Long Pond Îles de la Madeleine Airport
Legend: buoyBuoy land stationLand Station